Time;durP1;ratioP1;P1;durP2;ratioP2;P2;SDS_P1;SDS_P2;PMS_P1;PMS_P2;Temp;Humidity;BMP_temperature;BMP_pressure;BME280_temperature;BME280_humidity;BME280_pressure;Samples;Min_cycle;Max_cycle;Signal;HPM_P1;HPM_P2
2021/05/04 00:01:39;;;;;;;2.70;0.98;;;13.80;96.70;;;;;;4923911;28;20050;-77
2021/05/04 00:04:10;;;;;;;3.65;1.50;;;13.80;96.70;;;;;;4932529;28;20074;-77
2021/05/04 00:06:39;;;;;;;2.45;1.20;;;13.90;96.70;;;;;;4924923;28;20522;-77
2021/05/04 00:09:09;;;;;;;3.72;1.42;;;13.80;96.70;;;;;;4944227;28;20043;-76
2021/05/04 00:11:39;;;;;;;3.60;1.17;;;13.70;96.70;;;;;;4925680;28;20047;-76
2021/05/04 00:14:08;;;;;;;4.30;1.35;;;13.70;96.70;;;;;;4931518;28;20508;-77
2021/05/04 00:16:37;;;;;;;2.95;1.33;;;13.70;96.70;;;;;;4939597;28;20572;-77
2021/05/04 00:19:07;;;;;;;2.85;1.30;;;13.80;96.70;;;;;;4913110;29;20549;-76
2021/05/04 00:21:38;;;;;;;2.35;0.85;;;13.70;96.70;;;;;;4923614;28;20047;-77
2021/05/04 00:24:09;;;;;;;4.13;1.38;;;13.70;96.70;;;;;;4929644;28;20456;-76
2021/05/04 00:26:38;;;;;;;4.68;1.63;;;13.70;96.70;;;;;;4920326;28;20050;-77
2021/05/04 00:29:07;;;;;;;2.35;1.05;;;13.60;96.70;;;;;;4908791;28;20682;-77
2021/05/04 00:31:37;;;;;;;5.18;1.58;;;13.50;96.70;;;;;;4940826;28;20095;-76
2021/05/04 00:37:42;;;;;;;2.50;0.90;;;13.60;96.70;;;;;;4943032;28;20051;-77
2021/05/04 00:40:11;;;;;;;3.60;1.17;;;13.40;96.70;;;;;;4942289;28;20066;-77
2021/05/04 00:42:40;;;;;;;2.45;1.23;;;13.30;96.70;;;;;;4925369;28;20051;-76
2021/05/04 00:45:21;;;;;;;2.97;1.08;;;13.30;96.70;;;;;;4916721;28;20042;-76
2021/05/04 00:47:50;;;;;;;3.92;1.25;;;13.20;96.70;;;;;;4932077;28;20047;-76
2021/05/04 00:50:19;;;;;;;2.40;0.95;;;13.10;96.70;;;;;;4921647;28;20040;-76
2021/05/04 00:52:50;;;;;;;1.98;0.93;;;13.10;96.70;;;;;;4938855;28;20031;-77
2021/05/04 00:59:26;;;;;;;2.70;1.30;;;13.20;96.70;;;;;;4942783;28;20095;-76
2021/05/04 01:01:58;;;;;;;2.88;1.13;;;13.00;96.70;;;;;;4929903;28;20058;-76
2021/05/04 01:04:27;;;;;;;4.32;1.45;;;13.10;96.70;;;;;;4926119;29;20448;-75
2021/05/04 01:06:56;;;;;;;2.30;1.45;;;13.00;96.70;;;;;;4926545;29;20079;-75
2021/05/04 01:09:27;;;;;;;4.18;1.33;;;13.00;96.70;;;;;;4924141;28;20059;-74
2021/05/04 01:11:56;;;;;;;2.13;1.17;;;13.10;96.70;;;;;;4927420;28;20138;-74
2021/05/04 01:14:25;;;;;;;3.17;1.35;;;13.00;96.70;;;;;;4910042;28;20099;-74
2021/05/04 01:16:55;;;;;;;3.85;1.70;;;12.80;96.70;;;;;;4926174;28;20054;-74
2021/05/04 01:19:24;;;;;;;3.78;1.20;;;12.70;96.70;;;;;;4908442;28;20055;-76
2021/05/04 01:21:54;;;;;;;4.88;1.60;;;12.80;96.70;;;;;;4947195;28;20042;-75
2021/05/04 01:24:23;;;;;;;4.13;1.90;;;12.90;96.70;;;;;;4946027;28;20066;-74
2021/05/04 01:26:53;;;;;;;4.40;1.95;;;12.70;96.70;;;;;;4929756;28;20050;-74
2021/05/04 01:29:22;;;;;;;3.97;1.42;;;12.80;96.70;;;;;;4913488;28;20047;-75
2021/05/04 01:31:50;;;;;;;2.42;1.30;;;12.80;96.70;;;;;;4952086;28;20042;-74
2021/05/04 01:34:19;;;;;;;2.40;1.40;;;12.80;96.70;;;;;;4927680;28;20043;-74
2021/05/04 01:36:49;;;;;;;3.35;1.63;;;12.70;96.70;;;;;;4929189;28;20142;-74
2021/05/04 01:39:19;;;;;;;5.00;1.50;;;12.70;96.70;;;;;;4931381;28;20742;-74
2021/05/04 01:41:47;;;;;;;3.72;1.48;;;12.70;96.70;;;;;;4945248;28;20556;-75
2021/05/04 01:44:16;;;;;;;4.43;1.52;;;12.80;96.70;;;;;;4945008;28;20780;-74
2021/05/04 01:46:45;;;;;;;2.85;1.38;;;12.70;96.70;;;;;;4914673;28;20055;-75
2021/05/04 01:49:14;;;;;;;2.05;1.08;;;12.70;96.70;;;;;;4949285;28;20114;-74
2021/05/04 01:51:42;;;;;;;3.53;1.33;;;12.60;96.70;;;;;;4915894;28;20051;-74
2021/05/04 01:54:11;;;;;;;4.15;1.50;;;12.50;96.70;;;;;;4930602;29;20134;-75
2021/05/04 02:12:43;;;;;;;2.08;1.10;;;12.40;96.70;;;;;;4939092;28;20154;-75
2021/05/04 02:19:17;;;;;;;2.35;0.90;;;12.30;96.70;;;;;;4945773;28;20110;-75
2021/05/04 02:30:09;;;;;;;3.75;1.15;;;12.20;96.70;;;;;;4883047;29;20606;-75
2021/05/04 02:45:13;;;;;;;1.88;0.90;;;12.20;96.70;;;;;;4826990;29;20076;-75
2021/05/04 02:56:01;;;;;;;3.25;1.25;;;11.80;96.70;;;;;;4881398;29;20088;-75
2021/05/04 03:11:09;;;;;;;2.75;1.35;;;11.80;96.70;;;;;;4862189;29;20068;-74
2021/05/04 03:21:48;;;;;;;2.67;1.20;;;11.70;96.70;;;;;;4863130;29;20121;-74
2021/05/04 03:25:48;;;;;;;1.73;1.27;;;11.80;96.70;;;;;;4773202;29;20101;-75
2021/05/04 03:32:28;;;;;;;;;;;11.70;96.70;;;;;;4782962;29;20054;-74
2021/05/04 03:47:26;;;;;;;;;;;11.30;96.70;;;;;;4857936;29;20090;-75
2021/05/04 04:10:56;;;;;;;3.50;1.80;;;11.50;96.70;;;;;;4865622;29;20061;-74
2021/05/04 04:21:43;;;;;;;2.35;1.40;;;11.70;96.70;;;;;;4859266;29;20112;-74
2021/05/04 04:25:39;;;;;;;6.60;1.42;;;11.80;96.70;;;;;;4807720;29;20069;-75
2021/05/04 04:32:17;;;;;;;2.50;1.38;;;11.60;96.70;;;;;;4771440;29;20141;-75
2021/05/04 04:43:03;;;;;;;2.40;1.35;;;11.50;96.70;;;;;;4776973;29;20137;-75
2021/05/04 04:57:58;;;;;;;5.95;1.60;;;12.10;96.70;;;;;;4790919;29;20117;-74
2021/05/04 05:04:09;;;;;;;3.10;1.63;;;12.10;96.70;;;;;;4814370;29;20441;-77
2021/05/04 05:06:36;;;;;;;3.50;1.25;;;12.10;96.70;;;;;;4832237;29;20793;-75
2021/05/04 05:09:08;;;;;;;3.83;1.60;;;12.20;96.70;;;;;;4844719;29;20471;-75
2021/05/04 05:11:36;;;;;;;3.47;1.50;;;12.10;96.70;;;;;;4846624;29;20081;-75
2021/05/04 05:14:07;;;;;;;2.45;1.13;;;12.10;96.70;;;;;;4851677;29;20534;-75
2021/05/04 05:16:35;;;;;;;3.88;1.65;;;12.20;96.70;;;;;;4907155;29;20051;-76
2021/05/04 05:19:05;;;;;;;5.32;1.63;;;12.20;96.70;;;;;;4874682;29;20135;-75
2021/05/04 05:21:35;;;;;;;6.00;1.50;;;12.30;96.70;;;;;;4892429;29;20044;-75
2021/05/04 05:24:03;;;;;;;4.05;1.50;;;12.30;96.70;;;;;;4886822;29;20112;-75
2021/05/04 05:26:31;;;;;;;5.18;1.60;;;12.20;96.70;;;;;;4888869;29;20051;-75
2021/05/04 05:28:59;;;;;;;7.70;1.77;;;12.20;96.70;;;;;;4904559;29;20187;-75
2021/05/04 05:31:30;;;;;;;7.20;2.22;;;12.20;96.70;;;;;;4876102;29;20531;-75
2021/05/04 05:33:58;;;;;;;4.32;1.83;;;12.30;96.70;;;;;;4909268;29;20063;-76
2021/05/04 05:36:25;;;;;;;4.78;1.98;;;12.20;96.70;;;;;;4925802;29;20115;-74
2021/05/04 05:38:53;;;;;;;7.88;2.55;;;12.20;96.70;;;;;;4926483;29;20303;-76
2021/05/04 05:41:21;;;;;;;4.53;1.92;;;12.20;96.70;;;;;;4921803;29;20111;-75
2021/05/04 05:43:49;;;;;;;5.38;2.60;;;12.20;96.70;;;;;;4923637;29;20498;-76
2021/05/04 05:46:17;;;;;;;9.30;2.65;;;12.40;96.70;;;;;;4924381;29;20047;-75
2021/05/04 05:48:46;;;;;;;7.15;2.92;;;12.30;96.70;;;;;;4922281;29;20212;-75
2021/05/04 05:51:14;;;;;;;6.22;2.88;;;12.30;96.70;;;;;;4922375;29;20036;-75
2021/05/04 05:53:41;;;;;;;5.25;2.33;;;12.40;96.70;;;;;;4925113;29;20286;-75
2021/05/04 05:56:09;;;;;;;8.65;2.30;;;12.40;96.70;;;;;;4922034;29;20036;-75
2021/05/04 05:58:36;;;;;;;8.65;2.97;;;12.40;96.70;;;;;;4921061;29;20138;-75
2021/05/04 06:01:04;;;;;;;4.28;3.20;;;12.50;96.70;;;;;;4923675;29;20040;-75
2021/05/04 06:03:32;;;;;;;3.78;2.35;;;12.60;96.70;;;;;;4928498;29;20040;-75
2021/05/04 06:06:01;;;;;;;5.65;2.50;;;12.50;96.70;;;;;;4925293;29;20062;-75
2021/05/04 06:08:29;;;;;;;7.38;2.45;;;12.60;96.70;;;;;;4923113;29;20443;-76
2021/05/04 06:10:57;;;;;;;5.95;2.30;;;12.70;96.70;;;;;;4923711;29;20048;-75
2021/05/04 06:13:25;;;;;;;4.70;2.30;;;12.60;96.70;;;;;;4922283;29;20506;-76
2021/05/04 06:15:52;;;;;;;4.30;2.63;;;12.70;96.70;;;;;;4923711;29;20122;-75
2021/05/04 06:18:20;;;;;;;4.78;2.58;;;12.80;96.70;;;;;;4924521;29;20164;-75
2021/05/04 06:20:49;;;;;;;3.80;2.20;;;12.80;96.70;;;;;;4923484;29;20067;-76
2021/05/04 06:23:17;;;;;;;5.97;2.53;;;12.90;96.70;;;;;;4926064;29;20252;-76
2021/05/04 06:25:45;;;;;;;5.15;3.03;;;12.90;96.70;;;;;;4924512;28;20479;-75
2021/05/04 06:28:13;;;;;;;5.28;2.78;;;13.00;96.70;;;;;;4925017;29;20050;-76
2021/05/04 06:30:40;;;;;;;5.38;2.80;;;13.00;96.70;;;;;;4924250;29;20158;-74
2021/05/04 06:33:10;;;;;;;6.93;2.50;;;13.00;96.70;;;;;;4921161;29;20035;-76
2021/05/04 06:35:41;;;;;;;5.50;2.95;;;13.00;96.70;;;;;;4925982;29;20561;-76
2021/05/04 06:38:13;;;;;;;8.27;3.17;;;13.10;96.70;;;;;;4924960;29;20066;-76
2021/05/04 06:40:42;;;;;;;4.50;2.33;;;13.10;96.70;;;;;;4919815;29;20051;-76
2021/05/04 06:43:10;;;;;;;3.92;2.50;;;13.20;96.70;;;;;;4939580;28;20048;-75
2021/05/04 06:45:39;;;;;;;7.03;3.08;;;13.20;96.70;;;;;;4929343;29;20091;-75
2021/05/04 06:48:07;;;;;;;10.30;2.92;;;13.30;96.70;;;;;;4928259;29;20045;-75
2021/05/04 06:50:35;;;;;;;6.65;2.80;;;13.40;96.70;;;;;;4924833;29;20506;-74
2021/05/04 06:53:03;;;;;;;5.68;2.67;;;13.40;96.70;;;;;;4925796;29;20044;-76
2021/05/04 06:55:31;;;;;;;5.28;2.80;;;13.50;96.70;;;;;;4925127;29;20047;-75
2021/05/04 06:58:00;;;;;;;3.85;2.67;;;13.60;96.70;;;;;;4925674;29;20066;-76
2021/05/04 07:00:32;;;;;;;4.15;2.50;;;13.60;96.70;;;;;;4927159;29;20044;-76
2021/05/04 07:03:02;;;;;;;8.30;2.90;;;13.60;96.70;;;;;;4922895;29;20126;-75
2021/05/04 07:05:30;;;;;;;4.75;2.45;;;13.60;96.70;;;;;;4920425;29;20052;-76
2021/05/04 07:07:57;;;;;;;6.53;2.83;;;13.60;96.70;;;;;;4923854;29;20043;-75
2021/05/04 07:10:25;;;;;;;3.80;2.50;;;13.60;96.70;;;;;;4923808;28;20074;-75
2021/05/04 07:12:53;;;;;;;5.72;2.85;;;13.70;96.70;;;;;;4923331;29;20040;-75
2021/05/04 07:15:22;;;;;;;3.78;2.60;;;13.80;96.70;;;;;;4925874;28;20047;-77
2021/05/04 07:17:50;;;;;;;3.92;2.40;;;13.90;96.70;;;;;;4930822;29;20039;-75
2021/05/04 07:20:20;;;;;;;4.57;2.70;;;13.90;96.70;;;;;;4940931;28;20056;-77
2021/05/04 07:22:54;;;;;;;4.70;2.55;;;14.00;96.70;;;;;;4923662;29;20051;-79
2021/05/04 07:25:22;;;;;;;5.72;2.88;;;14.10;96.70;;;;;;4927974;29;20052;-77
2021/05/04 07:27:52;;;;;;;7.30;2.97;;;14.30;96.70;;;;;;4891026;29;20063;-76
2021/05/04 07:30:21;;;;;;;6.43;3.20;;;14.30;96.70;;;;;;4929970;29;20135;-77
2021/05/04 07:32:49;;;;;;;4.75;2.50;;;14.30;96.70;;;;;;4926252;28;20066;-76
2021/05/04 07:35:17;;;;;;;5.47;2.70;;;14.40;96.70;;;;;;4922677;29;20044;-77
2021/05/04 07:37:44;;;;;;;4.35;2.08;;;14.40;96.70;;;;;;4925680;29;20459;-76
2021/05/04 07:40:12;;;;;;;5.78;2.25;;;14.50;96.70;;;;;;4923232;29;20416;-77
2021/05/04 07:42:40;;;;;;;3.58;2.10;;;14.60;96.70;;;;;;4911989;29;20131;-76
2021/05/04 07:45:08;;;;;;;3.83;1.95;;;14.70;96.70;;;;;;4925716;29;20126;-77
2021/05/04 07:47:37;;;;;;;4.55;1.90;;;14.80;96.70;;;;;;4909475;29;20134;-77
2021/05/04 07:50:09;;;;;;;4.05;2.00;;;14.80;96.70;;;;;;4926298;29;20390;-76
2021/05/04 07:52:37;;;;;;;7.03;2.30;;;14.80;96.70;;;;;;4924900;29;20566;-76
2021/05/04 07:55:06;;;;;;;3.92;1.95;;;15.00;96.70;;;;;;4923046;29;20135;-77
2021/05/04 07:57:33;;;;;;;5.43;1.98;;;15.10;96.70;;;;;;4907171;29;20421;-77
2021/05/04 08:00:01;;;;;;;5.97;1.95;;;15.20;96.70;;;;;;4925268;29;20039;-76
2021/05/04 08:02:40;;;;;;;7.90;1.80;;;15.30;96.70;;;;;;4923868;29;20569;-76
2021/05/04 08:05:09;;;;;;;3.72;2.35;;;15.30;96.70;;;;;;4909422;29;20151;-76
2021/05/04 08:07:37;;;;;;;8.20;2.67;;;15.30;96.70;;;;;;4912124;29;20059;-76
2021/05/04 08:10:06;;;;;;;6.70;2.13;;;15.40;96.70;;;;;;4929365;29;20047;-76
2021/05/04 08:12:34;;;;;;;9.43;2.33;;;15.50;96.70;;;;;;4904951;29;20403;-76
2021/05/04 08:15:02;;;;;;;3.88;1.90;;;15.50;96.70;;;;;;4920182;29;20036;-76
2021/05/04 08:17:31;;;;;;;5.35;2.20;;;15.70;96.70;;;;;;4922858;29;20050;-76
2021/05/04 08:20:03;;;;;;;4.07;1.83;;;15.80;96.70;;;;;;4921200;29;20130;-76
2021/05/04 08:22:31;;;;;;;6.13;2.42;;;15.90;95.50;;;;;;4903556;29;20051;-76
2021/05/04 08:25:00;;;;;;;4.35;2.00;;;15.90;95.70;;;;;;4909128;29;20052;-77
2021/05/04 08:27:27;;;;;;;4.57;1.85;;;16.00;95.30;;;;;;4919838;29;20110;-75
2021/05/04 08:29:55;;;;;;;5.13;1.92;;;16.10;96.10;;;;;;4924791;29;20058;-77
2021/05/04 08:32:23;;;;;;;6.20;1.90;;;16.10;96.60;;;;;;4918279;29;20158;-76
2021/05/04 08:34:51;;;;;;;4.18;1.70;;;16.20;95.50;;;;;;4922488;29;20040;-76
2021/05/04 08:37:19;;;;;;;4.72;1.88;;;16.30;95.80;;;;;;4928437;29;20039;-77
2021/05/04 08:39:47;;;;;;;8.63;2.33;;;16.30;95.40;;;;;;4925180;28;20286;-75
2021/05/04 08:42:16;;;;;;;4.70;1.80;;;16.30;94.00;;;;;;4918623;29;20043;-78
2021/05/04 08:44:50;;;;;;;4.78;2.05;;;16.40;93.00;;;;;;4924769;29;20055;-78
2021/05/04 08:47:19;;;;;;;4.15;1.65;;;16.50;92.50;;;;;;4922051;29;20043;-76
2021/05/04 08:49:48;;;;;;;4.53;1.58;;;16.50;92.70;;;;;;4923554;29;20134;-76
2021/05/04 08:52:18;;;;;;;5.57;1.98;;;16.70;93.20;;;;;;4919180;29;20040;-76
2021/05/04 08:54:46;;;;;;;3.30;1.73;;;16.90;93.20;;;;;;4921205;29;20056;-77
2021/05/04 08:57:16;;;;;;;8.32;2.10;;;17.00;92.80;;;;;;4918944;29;20090;-76
2021/05/04 08:59:44;;;;;;;6.43;2.10;;;17.00;92.40;;;;;;4920462;29;20080;-75
2021/05/04 09:02:12;;;;;;;5.53;1.75;;;17.10;92.80;;;;;;4921483;29;20048;-76
2021/05/04 09:04:49;;;;;;;5.28;2.28;;;17.10;92.60;;;;;;4918905;29;20525;-76
2021/05/04 09:07:31;;;;;;;4.82;1.63;;;17.20;93.20;;;;;;4923710;29;20035;-76
2021/05/04 09:10:52;;;;;;;4.65;1.58;;;17.20;93.20;;;;;;4920831;29;20350;-76
2021/05/04 09:13:12;;;;;;;5.93;1.60;;;17.20;94.40;;;;;;4917349;29;20055;-75
2021/05/04 09:21:09;;;;;;;4.10;2.28;;;17.30;94.00;;;;;;4928260;29;20050;-76
2021/05/04 09:23:41;;;;;;;7.15;1.80;;;17.40;91.80;;;;;;4923703;29;20124;-77
2021/05/04 09:26:17;;;;;;;5.55;1.52;;;17.50;92.20;;;;;;4923949;29;20502;-76
2021/05/04 09:28:48;;;;;;;6.70;2.55;;;17.60;92.80;;;;;;4927341;29;20040;-76
2021/05/04 09:31:21;;;;;;;5.60;1.33;;;17.80;92.40;;;;;;4924873;29;20446;-76
2021/05/04 09:33:50;;;;;;;6.68;1.70;;;17.90;92.20;;;;;;4922711;29;20054;-76
2021/05/04 09:36:40;;;;;;;3.13;1.00;;;18.00;92.10;;;;;;4910031;29;20036;-76
2021/05/04 09:39:10;;;;;;;3.85;1.13;;;18.10;90.60;;;;;;4924647;29;20520;-76
2021/05/04 09:41:38;;;;;;;3.88;1.20;;;18.20;88.00;;;;;;4909715;29;20102;-75
2021/05/04 09:44:06;;;;;;;6.18;1.30;;;18.20;86.00;;;;;;4928018;29;20063;-76
2021/05/04 09:46:46;;;;;;;5.70;1.10;;;18.20;87.20;;;;;;4927453;28;20051;-77
2021/05/04 09:49:28;;;;;;;4.88;1.60;;;18.20;86.90;;;;;;4909503;29;20055;-76
2021/05/04 09:52:20;;;;;;;3.70;1.42;;;18.50;86.80;;;;;;4925461;29;20114;-76
2021/05/04 09:54:50;;;;;;;4.13;1.13;;;18.70;87.50;;;;;;4929282;29;20071;-76
2021/05/04 09:57:52;;;;;;;4.20;1.50;;;18.70;87.60;;;;;;4941070;28;20036;-76
2021/05/04 10:00:23;;;;;;;3.38;1.08;;;18.70;89.20;;;;;;4847436;29;20689;-76
2021/05/04 10:02:52;;;;;;;4.28;1.30;;;18.70;88.10;;;;;;4859853;29;20067;-76
2021/05/04 10:05:20;;;;;;;5.28;1.60;;;18.80;88.80;;;;;;4853392;29;20064;-76
2021/05/04 10:07:48;;;;;;;4.22;1.58;;;18.80;88.00;;;;;;4872805;29;20148;-76
2021/05/04 10:10:17;;;;;;;5.10;1.80;;;18.90;89.00;;;;;;4862654;29;20597;-76
2021/05/04 10:12:46;;;;;;;4.40;1.40;;;18.90;89.60;;;;;;4876209;29;20476;-76
2021/05/04 10:15:15;;;;;;;6.15;2.00;;;19.00;89.60;;;;;;4883158;29;20063;-76
2021/05/04 10:17:43;;;;;;;7.05;1.77;;;19.00;89.50;;;;;;4877149;29;20051;-77
2021/05/04 10:20:15;;;;;;;4.57;1.73;;;18.90;89.70;;;;;;4864469;29;20411;-76
2021/05/04 10:22:43;;;;;;;3.78;1.20;;;19.10;88.80;;;;;;4876725;29;20057;-77
2021/05/04 10:25:14;;;;;;;5.43;1.58;;;19.30;88.60;;;;;;4851676;29;20195;-76
2021/05/04 10:27:44;;;;;;;7.38;1.50;;;19.50;88.40;;;;;;4862725;29;20419;-77
2021/05/04 10:30:17;;;;;;;3.60;1.70;;;19.50;88.50;;;;;;4863283;29;20492;-76
2021/05/04 10:32:50;;;;;;;5.38;1.42;;;19.50;88.50;;;;;;4879495;29;20184;-76
2021/05/04 10:35:35;;;;;;;5.97;2.03;;;19.50;89.70;;;;;;4903464;28;20118;-76
2021/05/04 10:38:05;;;;;;;4.53;1.98;;;19.30;90.30;;;;;;4926342;28;20055;-76
2021/05/04 10:40:34;;;;;;;3.92;1.73;;;19.50;90.60;;;;;;4942002;28;20043;-76
2021/05/04 10:44:02;;;;;;;6.50;1.58;;;19.50;90.00;;;;;;4923316;29;20497;-76
2021/05/04 10:46:38;;;;;;;5.05;2.08;;;19.70;88.90;;;;;;4883604;29;20052;-77
2021/05/04 10:49:08;;;;;;;7.97;2.40;;;19.50;89.60;;;;;;4909071;28;20094;-76
2021/05/04 10:51:48;;;;;;;5.45;2.03;;;19.50;90.40;;;;;;4922406;28;20043;-76
2021/05/04 10:54:17;;;;;;;4.38;1.73;;;19.40;90.00;;;;;;4931203;28;20053;-76
2021/05/04 10:56:47;;;;;;;4.93;1.73;;;19.40;90.50;;;;;;4927040;28;20043;-76
2021/05/04 10:59:41;;;;;;;5.88;1.98;;;19.40;90.80;;;;;;4928215;28;20069;-77
2021/05/04 11:02:26;;;;;;;6.22;1.60;;;19.30;90.50;;;;;;4933856;28;20126;-77
2021/05/04 11:04:56;;;;;;;3.80;2.08;;;19.50;90.70;;;;;;4911451;28;20158;-77
2021/05/04 11:07:52;;;;;;;4.53;2.13;;;19.50;90.50;;;;;;4926851;28;20051;-77
2021/05/04 11:10:24;;;;;;;5.97;2.03;;;19.60;90.40;;;;;;4917798;28;20051;-76
2021/05/04 11:12:52;;;;;;;6.72;2.00;;;19.70;91.10;;;;;;4918021;29;20055;-77
2021/05/04 11:15:23;;;;;;;6.05;2.10;;;19.50;89.90;;;;;;4940924;28;20067;-77
2021/05/04 11:17:52;;;;;;;4.07;1.67;;;19.50;90.00;;;;;;4950399;28;20053;-77
2021/05/04 11:20:34;;;;;;;11.70;1.92;;;19.40;90.50;;;;;;4910503;28;20040;-76
2021/05/04 11:23:03;;;;;;;6.18;2.08;;;19.40;90.80;;;;;;4943686;28;20050;-77
2021/05/04 11:25:36;;;;;;;5.68;1.67;;;19.50;90.60;;;;;;4929407;28;20302;-76
2021/05/04 11:28:05;;;;;;;6.15;1.80;;;19.60;89.90;;;;;;4927136;29;20046;-77
2021/05/04 11:30:39;;;;;;;7.05;1.38;;;19.70;89.90;;;;;;4922614;29;20047;-76
2021/05/04 11:33:26;;;;;;;2.72;1.23;;;19.60;90.50;;;;;;4924375;28;20047;-76
2021/05/04 11:35:55;;;;;;;5.05;1.42;;;19.50;90.00;;;;;;4917429;28;20589;-77
2021/05/04 11:38:25;;;;;;;4.43;1.42;;;19.60;89.70;;;;;;4928033;28;20090;-77
2021/05/04 11:40:53;;;;;;;4.00;1.08;;;19.70;90.60;;;;;;4945634;28;20047;-76
2021/05/04 11:43:23;;;;;;;10.50;1.73;;;19.60;89.10;;;;;;4917470;28;20398;-76
2021/05/04 11:45:52;;;;;;;3.92;1.20;;;19.50;89.70;;;;;;4940615;28;20058;-76
2021/05/04 11:48:26;;;;;;;4.93;1.30;;;19.50;89.80;;;;;;4940200;28;20043;-76
2021/05/04 11:50:55;;;;;;;3.83;1.13;;;19.50;90.40;;;;;;4924970;28;20130;-77
2021/05/04 11:53:23;;;;;;;3.08;1.20;;;19.50;90.40;;;;;;4939213;28;20576;-76
2021/05/04 11:55:54;;;;;;;1.63;0.80;;;19.60;89.60;;;;;;4924812;28;20043;-76
2021/05/04 11:58:23;;;;;;;3.17;0.90;;;19.70;89.60;;;;;;4940439;28;20106;-77
2021/05/04 12:00:59;;;;;;;4.07;1.02;;;19.70;88.40;;;;;;4919252;28;20069;-77
2021/05/04 12:03:27;;;;;;;3.67;1.10;;;19.70;88.60;;;;;;4942227;28;20051;-77
2021/05/04 12:05:57;;;;;;;5.40;1.48;;;19.60;89.50;;;;;;4942733;28;20516;-76
2021/05/04 12:08:26;;;;;;;3.88;1.20;;;19.50;89.80;;;;;;4927916;28;20055;-76
2021/05/04 12:10:54;;;;;;;3.00;1.27;;;19.50;91.20;;;;;;4942558;28;20122;-76
2021/05/04 12:13:41;;;;;;;5.70;1.27;;;19.50;90.30;;;;;;4925575;28;20051;-76
2021/05/04 12:16:10;;;;;;;5.22;1.17;;;19.50;90.00;;;;;;4911250;28;20043;-76
2021/05/04 12:18:39;;;;;;;6.70;1.55;;;19.60;89.10;;;;;;4933712;28;20043;-77
2021/05/04 12:21:10;;;;;;;5.40;0.90;;;19.70;88.80;;;;;;4943900;28;20039;-77
2021/05/04 12:23:41;;;;;;;5.05;1.30;;;19.90;88.50;;;;;;4908615;28;20079;-77
2021/05/04 12:26:11;;;;;;;4.82;1.13;;;19.90;88.60;;;;;;4942295;28;20540;-77
2021/05/04 12:28:44;;;;;;;4.15;1.13;;;20.00;88.70;;;;;;4926839;28;20382;-76
2021/05/04 12:31:17;;;;;;;5.35;1.38;;;20.20;88.80;;;;;;4929453;28;20582;-77
2021/05/04 12:33:46;;;;;;;5.07;1.52;;;20.10;89.00;;;;;;4920755;29;20055;-77
2021/05/04 12:36:31;;;;;;;1.65;0.80;;;20.20;89.10;;;;;;4940183;28;20040;-76
2021/05/04 12:39:01;;;;;;;2.10;0.85;;;19.80;89.80;;;;;;4925004;28;20402;-76
2021/05/04 12:41:33;;;;;;;3.17;1.17;;;19.90;88.40;;;;;;4907751;28;20071;-77
2021/05/04 12:44:24;;;;;;;2.72;0.90;;;19.90;89.00;;;;;;4939034;28;20070;-77
2021/05/04 12:46:52;;;;;;;3.70;1.00;;;19.80;89.20;;;;;;4922642;28;20119;-76
2021/05/04 12:49:31;;;;;;;2.17;0.70;;;19.60;88.90;;;;;;4949510;28;20051;-76
2021/05/04 12:52:06;;;;;;;1.52;0.70;;;19.50;88.90;;;;;;4926799;28;20051;-77
2021/05/04 12:54:36;;;;;;;2.45;0.60;;;19.60;87.70;;;;;;4928799;28;20047;-76
2021/05/04 12:57:17;;;;;;;2.70;0.60;;;19.80;88.50;;;;;;4927932;28;20066;-77
2021/05/04 12:59:45;;;;;;;2.92;0.82;;;19.90;86.10;;;;;;4924452;28;20491;-77
2021/05/04 13:02:22;;;;;;;2.60;0.90;;;20.10;85.70;;;;;;4924576;29;20043;-76
2021/05/04 13:04:54;;;;;;;2.35;0.85;;;20.00;86.40;;;;;;4945813;28;20051;-76
2021/05/04 13:07:30;;;;;;;2.92;1.10;;;19.70;87.90;;;;;;4930232;28;20587;-76
2021/05/04 13:16:14;;;;;;;2.75;0.90;;;20.20;89.10;;;;;;4944151;28;20563;-76
2021/05/04 13:32:12;;;;;;;6.88;1.35;;;20.60;87.30;;;;;;4948614;28;20054;-76
2021/05/04 13:34:51;;;;;;;2.88;0.80;;;20.80;86.70;;;;;;4920330;28;20051;-76
2021/05/04 13:37:29;;;;;;;1.33;0.70;;;20.70;87.10;;;;;;4910627;28;20051;-76
2021/05/04 13:48:28;;;;;;;1.77;0.63;;;21.20;85.50;;;;;;4928809;29;20050;-76
2021/05/04 13:50:58;;;;;;;2.38;0.63;;;21.80;82.00;;;;;;4925585;28;20059;-77
2021/05/04 13:53:26;;;;;;;2.75;0.82;;;21.60;82.20;;;;;;4924728;28;20130;-77
2021/05/04 13:55:55;;;;;;;3.42;1.00;;;22.00;82.40;;;;;;4945813;28;20043;-75
2021/05/04 13:58:27;;;;;;;2.03;0.50;;;21.90;84.20;;;;;;4910990;28;21357;-75
2021/05/04 14:03:48;;;;;;;3.40;0.70;;;21.50;85.20;;;;;;4938689;28;20051;-76
2021/05/04 14:06:28;;;;;;;1.88;0.75;;;21.40;82.70;;;;;;4920096;29;20199;-75
2021/05/04 14:15:12;;;;;;;3.60;0.73;;;22.50;77.90;;;;;;4946725;28;20509;-75
2021/05/04 14:24:42;;;;;;;4.45;0.90;;;23.00;77.80;;;;;;4945383;28;20051;-76
2021/05/04 14:28:34;;;;;;;0.93;0.47;;;23.70;74.70;;;;;;4943192;28;20039;-76
2021/05/04 14:31:02;;;;;;;2.13;0.80;;;23.90;73.90;;;;;;4912720;28;20055;-76
2021/05/04 14:33:30;;;;;;;3.17;0.70;;;23.70;74.50;;;;;;4924455;28;20047;-75
2021/05/04 14:36:12;;;;;;;3.38;0.70;;;23.10;74.40;;;;;;4942470;28;20417;-76
2021/05/04 14:38:57;;;;;;;1.42;0.60;;;22.80;73.10;;;;;;4940289;28;20497;-76
2021/05/04 14:44:33;;;;;;;2.15;0.60;;;24.40;68.10;;;;;;4925860;28;20134;-77
2021/05/04 14:55:49;;;;;;;2.65;0.50;;;25.10;66.90;;;;;;4924478;29;20119;-76
2021/05/04 15:00:58;;;;;;;2.35;0.93;;;25.40;70.40;;;;;;4927539;28;20535;-76
2021/05/04 15:03:28;;;;;;;4.00;1.00;;;25.40;67.20;;;;;;4925183;28;20043;-77
2021/05/04 15:05:55;;;;;;;1.90;1.00;;;25.60;66.50;;;;;;4922425;28;20370;-77
2021/05/04 15:08:23;;;;;;;2.25;1.00;;;25.80;67.00;;;;;;4945848;28;20072;-76
2021/05/04 15:10:52;;;;;;;3.42;0.80;;;25.90;65.40;;;;;;4921734;29;20051;-76
2021/05/04 15:13:21;;;;;;;1.70;0.65;;;25.80;66.10;;;;;;4925833;29;20142;-76
2021/05/04 15:23:53;;;;;;;2.38;0.70;;;26.10;66.90;;;;;;4943204;28;19970;-77
2021/05/04 15:26:22;;;;;;;1.83;0.93;;;26.70;65.30;;;;;;4926721;28;20039;-76
2021/05/04 15:28:50;;;;;;;2.45;0.90;;;26.80;65.50;;;;;;4921856;28;20063;-77
2021/05/04 15:31:23;;;;;;;3.83;0.77;;;26.70;64.70;;;;;;4927242;28;20080;-76
2021/05/04 15:33:51;;;;;;;1.38;0.73;;;27.10;63.60;;;;;;4913265;29;20044;-77
2021/05/04 15:36:20;;;;;;;2.67;0.60;;;27.10;65.40;;;;;;4926309;29;20043;-77
2021/05/04 15:38:50;;;;;;;2.42;0.68;;;26.80;66.50;;;;;;4941755;28;20548;-76
2021/05/04 15:41:18;;;;;;;3.30;1.00;;;26.70;67.20;;;;;;4923349;28;20574;-77
2021/05/04 15:43:51;;;;;;;3.08;0.80;;;26.70;67.70;;;;;;4915710;28;20051;-77
2021/05/04 15:46:48;;;;;;;2.10;0.85;;;26.60;68.10;;;;;;4911827;28;20038;-77
2021/05/04 15:49:38;;;;;;;2.22;0.82;;;27.10;67.70;;;;;;4924996;28;20055;-77
2021/05/04 15:52:18;;;;;;;1.98;0.70;;;26.50;67.80;;;;;;4919116;28;20077;-78
2021/05/04 15:55:31;;;;;;;2.42;0.95;;;27.30;67.90;;;;;;4928289;28;20078;-77
2021/05/04 16:00:45;;;;;;;2.30;0.63;;;27.00;67.40;;;;;;4949223;28;20089;-77
2021/05/04 16:03:28;;;;;;;1.30;0.77;;;26.40;67.70;;;;;;4936376;28;20052;-77
2021/05/04 16:08:50;;;;;;;3.42;1.08;;;26.60;68.50;;;;;;4921097;28;20058;-77
2021/05/04 16:11:18;;;;;;;2.28;0.88;;;27.20;67.60;;;;;;4927229;28;20051;-77
2021/05/04 16:13:47;;;;;;;2.70;0.82;;;27.50;68.60;;;;;;4909394;28;20126;-77
2021/05/04 16:16:17;;;;;;;2.75;1.02;;;26.70;70.70;;;;;;4922637;28;20536;-77
2021/05/04 16:18:47;;;;;;;4.10;1.00;;;27.40;69.50;;;;;;4926143;28;20047;-78
2021/05/04 16:21:34;;;;;;;3.08;1.02;;;27.70;68.90;;;;;;4930310;28;20046;-76
2021/05/04 16:24:25;;;;;;;1.73;0.63;;;27.70;68.00;;;;;;4913243;28;20051;-75
2021/05/04 16:29:52;;;;;;;1.67;0.88;;;27.60;67.70;;;;;;4944177;28;20045;-77
2021/05/04 16:32:22;;;;;;;2.63;1.08;;;27.90;67.80;;;;;;4930221;28;20051;-77
2021/05/04 16:34:50;;;;;;;3.47;0.98;;;27.80;67.50;;;;;;4929550;28;20154;-77
2021/05/04 16:37:18;;;;;;;2.00;0.70;;;26.80;70.00;;;;;;4928251;28;20047;-76
2021/05/04 16:39:46;;;;;;;2.30;0.70;;;25.30;71.70;;;;;;4930120;28;20039;-76
2021/05/04 16:42:14;;;;;;;3.85;1.17;;;23.00;77.80;;;;;;4926846;28;20047;-76
2021/05/04 16:44:43;;;;;;;2.47;0.80;;;21.90;82.30;;;;;;4932417;28;20051;-76
2021/05/04 16:47:11;;;;;;;5.82;1.42;;;21.20;85.20;;;;;;4931242;28;20048;-76
2021/05/04 16:49:41;;;;;;;4.00;0.85;;;22.60;82.50;;;;;;4948138;28;20501;-76
2021/05/04 16:52:14;;;;;;;3.17;0.90;;;24.20;79.30;;;;;;4929552;28;20043;-77
2021/05/04 16:54:43;;;;;;;2.17;0.93;;;25.70;76.80;;;;;;4946450;28;20788;-77
2021/05/04 16:57:11;;;;;;;2.67;0.80;;;25.70;74.50;;;;;;4931819;28;20133;-77
2021/05/04 16:59:40;;;;;;;3.53;0.90;;;24.90;76.90;;;;;;4929786;28;20094;-77
2021/05/04 17:02:10;;;;;;;4.00;0.80;;;25.10;77.00;;;;;;4929355;28;20039;-76
2021/05/04 17:04:40;;;;;;;2.67;0.90;;;25.30;76.40;;;;;;4928851;28;20090;-77
2021/05/04 17:07:17;;;;;;;4.28;1.00;;;25.80;75.20;;;;;;4929074;28;20074;-78